KTOI/TOI METAR and TAF weather

Enter ICAO airport designator
Station Type Date Time Source
KTOI METAR 2019/06/17 14:53 UTC NOAA

KTOI 171453Z AUTO 16006KT 10SM FEW026 29/22 A3004 RMK AO2 SLP167 T02890222 50002


Station Type Date Time Source
KTOI Decoded METAR 2019/06/17 14:53 UTC NOAA

TROY MUNICIPAL AIRPORT, AL, United States (KTOI) 31-52N 086-01W 118M
Jun 17, 2019 - 10:53 AM EDT / 2019.06.17 1453 UTC
Wind: from the SSE (160 degrees) at 7 MPH (6 KT):0
Visibility: 10 mile(s):0
Sky conditions: mostly clear
Temperature: 84.0 F (28.9 C)
Dew Point: 72.0 F (22.2 C)
Relative Humidity: 67%
Pressure (altimeter): 30.04 in. Hg (1017 hPa)
Pressure tendency: 0.01 inches (0.2 hPa) higher than three hours ago
ob: KTOI 171453Z AUTO 16006KT 10SM FEW026 29/22 A3004 RMK AO2 SLP167 T02890222 50002
cycle: 15

Station Type Date Time Source
KTOI TAF 2019/06/17 12:36 UTC NOAA

TAF KTOI 171134Z 1712/1812 VRB04KT P6SM SCT250
FM171800 17005KT P6SM SCT050 PROB30 1721/1724 6SM TSRA BKN035CB
FM180100 16003KT P6SM VCSH BKN050
FM181000 00000KT 6SM BR BKN015

Example: see airport list